createdAt,value
2019-05-25T00:02:13.034Z,95018.61
2019-05-25T00:04:44.249Z,95017.13
2019-05-25T00:07:15.507Z,95012.39
2019-05-25T00:09:48.531Z,95012.23
2019-05-25T00:12:21.615Z,95014.36
2019-05-25T00:14:52.757Z,95008.80
2019-05-25T00:17:24.060Z,95006.67
2019-05-25T00:19:55.414Z,95007.33
2019-05-25T00:22:26.702Z,95009.09
2019-05-25T00:24:57.919Z,95003.54
2019-05-25T00:27:29.243Z,95009.77
2019-05-25T00:30:00.319Z,95006.84
2019-05-25T00:32:31.812Z,95001.95
2019-05-25T00:35:03.444Z,95001.65
2019-05-25T00:37:35.140Z,95002.32
2019-05-25T00:40:07.035Z,95002.77
2019-05-25T00:42:38.225Z,95003.13
2019-05-25T00:45:09.739Z,94998.89
2019-05-25T00:47:40.909Z,94998.08
2019-05-25T00:50:12.432Z,94995.12
2019-05-25T00:52:43.648Z,94994.80
2019-05-25T00:55:14.950Z,94993.32
2019-05-25T00:57:46.173Z,94991.38
2019-05-25T01:00:17.467Z,94994.14
2019-05-25T01:02:48.727Z,94996.26
2019-05-25T01:05:19.939Z,94999.05
2019-05-25T01:07:51.161Z,94990.56
2019-05-25T01:10:22.383Z,94993.67
2019-05-25T01:12:53.582Z,94989.23
2019-05-25T01:15:25.320Z,94992.85
2019-05-25T01:17:56.449Z,94990.23
2019-05-25T01:20:27.886Z,94991.52
2019-05-25T01:22:59.183Z,94993.50
2019-05-25T01:25:30.431Z,94988.11
2019-05-25T01:28:01.663Z,94992.64
2019-05-25T01:30:32.932Z,94984.69
2019-05-25T01:33:04.199Z,94992.83
2019-05-25T01:35:35.534Z,94986.78
2019-05-25T01:38:06.898Z,94992.17
2019-05-25T01:40:41.101Z,94984.34
2019-05-25T01:43:12.779Z,94983.79
2019-05-25T01:45:43.839Z,94991.52
2019-05-25T01:48:15.095Z,94995.30
2019-05-25T01:50:46.190Z,94991.36
2019-05-25T01:53:17.543Z,94998.04
2019-05-25T01:55:48.676Z,94992.83
2019-05-25T01:58:19.849Z,94992.80
2019-05-25T02:00:51.079Z,94991.85
2019-05-25T02:03:22.416Z,94998.73
2019-05-25T02:05:53.704Z,95002.45
2019-05-25T02:08:24.945Z,95000.82
2019-05-25T02:10:56.195Z,94992.94
2019-05-25T02:13:27.503Z,95000.82
2019-05-25T02:15:58.758Z,94995.13
2019-05-25T02:18:30.005Z,94993.13
2019-05-25T02:21:01.295Z,94999.22
2019-05-25T02:23:32.520Z,94992.18
2019-05-25T02:26:03.699Z,94998.09
2019-05-25T02:28:34.978Z,94997.41
2019-05-25T02:31:06.547Z,94990.90
2019-05-25T02:33:37.858Z,94991.88
2019-05-25T02:36:09.131Z,94995.95
2019-05-25T02:38:40.325Z,95003.64
2019-05-25T02:41:11.619Z,95007.25
2019-05-25T02:43:42.937Z,95008.70
2019-05-25T02:46:14.192Z,95002.48
2019-05-25T02:48:45.538Z,95000.52
2019-05-25T02:51:16.794Z,95009.95
2019-05-25T02:53:48.066Z,95003.74
2019-05-25T02:56:19.322Z,95003.76
2019-05-25T02:58:50.587Z,95002.80
2019-05-25T03:01:21.914Z,95007.25
2019-05-25T03:03:53.470Z,95011.00
2019-05-25T03:06:24.844Z,95014.30
2019-05-25T03:08:58.274Z,95012.25
2019-05-25T03:11:31.783Z,95009.69
2019-05-25T03:14:04.221Z,95008.70
2019-05-25T03:16:35.384Z,95003.08
2019-05-25T03:19:06.586Z,94999.34
2019-05-25T03:21:37.876Z,95000.02
2019-05-25T03:24:09.059Z,94996.58
2019-05-25T03:26:40.323Z,95003.58
2019-05-25T03:29:11.410Z,94999.20
2019-05-25T03:31:42.585Z,95001.82
2019-05-25T03:34:13.752Z,95004.91
2019-05-25T03:36:44.985Z,95005.46
2019-05-25T03:39:16.136Z,95004.94
2019-05-25T03:41:47.386Z,95000.65
2019-05-25T03:44:18.683Z,95011.89
2019-05-25T03:46:49.841Z,95002.22
2019-05-25T03:49:20.995Z,95003.26
2019-05-25T03:51:52.299Z,95011.51
2019-05-25T03:54:23.549Z,95004.09
2019-05-25T03:56:54.883Z,95006.53
2019-05-25T03:59:26.159Z,95008.45
2019-05-25T04:01:57.579Z,95005.23
2019-05-25T04:04:28.944Z,95004.59
2019-05-25T04:07:00.068Z,95010.31
2019-05-25T04:09:31.249Z,95000.00
2019-05-25T04:12:02.686Z,95005.17
2019-05-25T04:14:34.021Z,95005.84
2019-05-25T04:17:05.492Z,95010.01
2019-05-25T04:19:36.835Z,95011.13
2019-05-25T04:22:08.317Z,95013.25
2019-05-25T04:24:39.582Z,95017.16
2019-05-25T04:27:10.873Z,95019.12
2019-05-25T04:29:42.039Z,95021.89
2019-05-25T04:32:13.431Z,95020.03
2019-05-25T04:34:44.594Z,95020.62
2019-05-25T04:37:15.895Z,95016.50
2019-05-25T04:39:47.208Z,95014.34
2019-05-25T04:42:18.621Z,95011.01
2019-05-25T04:44:49.898Z,95010.01
2019-05-25T04:47:26.772Z,95008.05
2019-05-25T04:49:54.104Z,95011.22
2019-05-25T04:52:25.476Z,95014.42
2019-05-25T04:54:56.855Z,95010.13
2019-05-25T04:57:28.171Z,95014.61
2019-05-25T04:59:59.446Z,95017.09
2019-05-25T05:02:30.759Z,95017.57
2019-05-25T05:05:01.844Z,95014.34
2019-05-25T05:07:33.211Z,95011.07
2019-05-25T05:10:05.417Z,95011.79
2019-05-25T05:12:36.616Z,95014.34
2019-05-25T05:15:08.161Z,95014.53
2019-05-25T05:17:39.316Z,95017.75
2019-05-25T05:20:12.192Z,95016.53
2019-05-25T05:22:43.453Z,95025.07
2019-05-25T05:25:14.974Z,95019.31
2019-05-25T05:27:46.147Z,95021.19
2019-05-25T05:30:20.842Z,95022.81
2019-05-25T05:32:52.115Z,95028.31
2019-05-25T05:35:23.493Z,95028.52
2019-05-25T05:37:54.918Z,95028.36
2019-05-25T05:40:26.237Z,95035.57
2019-05-25T05:43:01.083Z,95030.48
2019-05-25T05:45:34.681Z,95038.48
2019-05-25T05:48:06.315Z,95040.31
2019-05-25T05:50:39.318Z,95036.89
2019-05-25T05:53:10.690Z,95031.70
2019-05-25T05:55:41.839Z,95032.75
2019-05-25T05:58:13.093Z,95028.59
2019-05-25T06:00:44.339Z,95036.00
2019-05-25T06:03:15.576Z,95035.48
2019-05-25T06:05:46.858Z,95035.75
2019-05-25T06:08:18.090Z,95041.54
2019-05-25T06:10:49.162Z,95037.66
2019-05-25T06:13:20.554Z,95035.05
2019-05-25T06:15:51.664Z,95035.19
2019-05-25T06:18:22.852Z,95031.26
2019-05-25T06:20:54.066Z,95032.80
2019-05-25T06:23:25.216Z,95026.26
2019-05-25T06:25:56.492Z,95031.16
2019-05-25T06:28:27.635Z,95035.34
2019-05-25T06:30:58.868Z,95036.80
2019-05-25T06:33:30.095Z,95040.95
2019-05-25T06:36:01.436Z,95042.66
2019-05-25T06:38:32.586Z,95045.19
2019-05-25T06:41:03.927Z,95045.04
2019-05-25T06:43:35.240Z,95042.42
2019-05-25T06:46:06.752Z,95037.70
2019-05-25T06:48:38.045Z,95040.06
2019-05-25T06:51:09.433Z,95034.59
2019-05-25T06:53:40.659Z,95032.23
2019-05-25T06:56:12.007Z,95029.73
2019-05-25T06:58:44.222Z,95031.19
2019-05-25T07:01:15.443Z,95029.95
2019-05-25T07:03:46.595Z,95040.26
2019-05-25T07:06:17.844Z,95047.77
2019-05-25T07:08:49.058Z,95036.93
2019-05-25T07:11:20.596Z,95038.08
2019-05-25T07:13:51.888Z,95040.16
2019-05-25T07:16:23.116Z,95037.91
2019-05-25T07:18:54.281Z,95044.73
2019-05-25T07:21:25.523Z,95043.42
2019-05-25T07:23:56.776Z,95039.94
2019-05-25T07:26:27.988Z,95035.45
2019-05-25T07:28:59.215Z,95040.81
2019-05-25T07:31:30.551Z,95051.95
2019-05-25T07:34:01.701Z,95041.20
2019-05-25T07:36:32.883Z,95042.38
2019-05-25T07:39:05.942Z,95037.29
2019-05-25T07:41:37.249Z,95053.34
2019-05-25T07:44:08.513Z,95057.64
2019-05-25T07:46:39.778Z,95055.26
2019-05-25T07:49:10.942Z,95049.72
2019-05-25T07:51:42.177Z,95057.92
2019-05-25T07:54:13.466Z,95065.38
2019-05-25T07:56:44.627Z,95056.15
2019-05-25T07:59:15.838Z,95056.88
2019-05-25T08:01:46.979Z,95061.32
2019-05-25T08:04:18.292Z,95059.70
2019-05-25T08:06:49.482Z,95068.47
2019-05-25T08:09:20.877Z,95070.09
2019-05-25T08:11:52.134Z,95057.84
2019-05-25T08:14:23.315Z,95058.09
2019-05-25T08:16:54.613Z,95051.30
2019-05-25T08:19:25.745Z,95057.20
2019-05-25T08:21:56.890Z,95061.23
2019-05-25T08:24:28.029Z,95061.02
2019-05-25T08:26:59.188Z,95066.44
2019-05-25T08:29:30.532Z,95052.72
2019-05-25T08:32:01.771Z,95062.22
2019-05-25T08:34:32.904Z,95060.42
2019-05-25T08:37:04.430Z,95059.59
2019-05-25T08:39:35.741Z,95065.02
2019-05-25T08:42:07.104Z,95069.78
2019-05-25T08:44:38.168Z,95070.59
2019-05-25T08:47:09.383Z,95072.97
2019-05-25T08:49:40.600Z,95061.59
2019-05-25T08:52:11.757Z,95065.55
2019-05-25T08:54:42.979Z,95061.67
2019-05-25T08:57:18.508Z,95068.28
2019-05-25T08:59:47.419Z,95063.25
2019-05-25T09:02:18.906Z,95072.50
2019-05-25T09:04:50.141Z,95066.65
2019-05-25T09:07:21.466Z,95078.41
2019-05-25T09:09:52.825Z,95069.50
2019-05-25T09:12:24.021Z,95059.88
2019-05-25T09:14:55.389Z,95058.91
2019-05-25T09:17:26.685Z,95053.30
2019-05-25T09:19:57.905Z,95067.30
2019-05-25T09:22:29.040Z,95068.48
2019-05-25T09:25:00.180Z,95074.12
2019-05-25T09:27:31.335Z,95074.71
2019-05-25T09:30:02.527Z,95075.61
2019-05-25T09:32:33.929Z,95076.14
2019-05-25T09:35:05.606Z,95067.88
2019-05-25T09:37:37.146Z,95079.18
2019-05-25T09:40:09.397Z,95080.56
2019-05-25T09:42:40.762Z,95082.38
2019-05-25T09:45:14.258Z,95074.30
2019-05-25T09:47:44.950Z,95075.42
2019-05-25T09:50:16.310Z,95069.73
2019-05-25T09:52:47.602Z,95062.72
2019-05-25T09:55:19.159Z,95065.62
2019-05-25T09:57:50.464Z,95068.63
2019-05-25T10:00:22.056Z,95061.71
2019-05-25T10:02:53.318Z,95066.58
2019-05-25T10:05:24.660Z,95067.64
2019-05-25T10:07:55.812Z,95065.73
2019-05-25T10:10:27.370Z,95062.35
2019-05-25T10:12:58.719Z,95064.15
2019-05-25T10:15:29.952Z,95059.39
2019-05-25T10:18:01.308Z,95068.28
2019-05-25T10:20:33.673Z,95070.74
2019-05-25T10:23:04.916Z,95070.95
2019-05-25T10:25:36.139Z,95069.44
2019-05-25T10:28:07.354Z,95067.62
2019-05-25T10:30:38.587Z,95063.22
2019-05-25T10:33:09.765Z,95064.42
2019-05-25T10:35:41.051Z,95066.80
2019-05-25T10:38:13.622Z,95064.44
2019-05-25T10:40:44.956Z,95064.80
2019-05-25T10:43:22.775Z,95058.08
2019-05-25T10:45:55.617Z,95060.53
2019-05-25T10:48:27.932Z,95058.16
2019-05-25T10:50:59.232Z,95048.20
2019-05-25T10:53:30.632Z,95053.15
2019-05-25T10:56:01.863Z,95046.73
2019-05-25T10:58:33.224Z,95047.16
2019-05-25T11:01:04.524Z,95041.14
2019-05-25T11:03:35.778Z,95039.66
2019-05-25T11:06:07.027Z,95032.23
2019-05-25T11:08:38.387Z,95029.02
2019-05-25T11:11:09.702Z,95028.27
2019-05-25T11:13:40.910Z,95029.67
2019-05-25T11:16:12.122Z,95026.94
2019-05-25T11:18:43.384Z,95019.37
2019-05-25T11:21:14.563Z,95025.93
2019-05-25T11:23:46.196Z,95024.01
2019-05-25T11:26:17.503Z,95020.09
2019-05-25T11:28:48.926Z,95024.05
2019-05-25T11:31:20.196Z,95018.89
2019-05-25T11:33:51.471Z,95017.48
2019-05-25T11:36:22.706Z,95012.58
2019-05-25T11:38:54.043Z,95015.30
2019-05-25T11:41:25.254Z,95017.31
2019-05-25T11:43:56.536Z,95017.02
2019-05-25T11:46:27.944Z,95010.34
2019-05-25T11:48:59.146Z,95016.05
2019-05-25T11:51:30.395Z,95010.83
2019-05-25T11:54:01.655Z,95010.63
2019-05-25T11:56:32.947Z,95000.59
2019-05-25T11:59:04.469Z,95001.67
2019-05-25T12:01:35.769Z,94995.48
2019-05-25T12:04:07.078Z,95002.27
2019-05-25T12:06:38.521Z,95005.89
2019-05-25T12:09:10.273Z,95001.77
2019-05-25T12:11:41.676Z,94996.90
2019-05-25T12:14:12.810Z,94992.73
2019-05-25T12:16:44.057Z,95004.39
2019-05-25T12:19:16.592Z,94998.28
2019-05-25T12:21:47.777Z,95010.16
2019-05-25T12:24:19.126Z,95009.66
2019-05-25T12:26:50.439Z,95006.97
2019-05-25T12:32:05.875Z,94999.66
2019-05-25T12:34:37.025Z,94992.00
2019-05-25T12:37:08.258Z,94989.02
2019-05-25T12:39:39.386Z,94991.44
2019-05-25T12:42:10.524Z,94992.61
2019-05-25T12:44:41.908Z,94989.92
2019-05-25T12:47:13.256Z,94984.55
2019-05-25T12:49:50.800Z,94982.27
2019-05-25T12:52:17.486Z,94984.27
2019-05-25T12:54:48.791Z,94985.87
2019-05-25T12:57:20.007Z,94982.19
2019-05-25T12:59:51.344Z,94988.52
2019-05-25T13:02:22.593Z,94990.66
2019-05-25T13:04:54.770Z,94990.41
2019-05-25T13:07:26.084Z,94984.94
2019-05-25T13:09:57.372Z,94983.70
2019-05-25T13:12:28.561Z,94985.23
2019-05-25T13:14:59.750Z,94988.95
2019-05-25T13:17:30.978Z,94985.54
2019-05-25T13:20:02.314Z,94993.41
2019-05-25T13:22:33.505Z,94992.44
2019-05-25T13:25:05.467Z,94994.39
2019-05-25T13:27:37.731Z,94997.67
2019-05-25T13:30:09.766Z,94996.41
2019-05-25T13:32:40.996Z,94999.58
2019-05-25T13:35:12.257Z,94996.07
2019-05-25T13:37:43.529Z,94994.55
2019-05-25T13:40:15.174Z,94990.24
2019-05-25T13:42:46.482Z,94992.94
2019-05-25T13:45:18.119Z,94994.75
2019-05-25T13:47:49.492Z,94998.13
2019-05-25T13:50:21.179Z,94997.52
2019-05-25T13:52:52.425Z,95002.51
2019-05-25T13:55:23.667Z,95003.83
2019-05-25T13:57:54.919Z,95006.89
2019-05-25T14:00:26.298Z,95002.05
2019-05-25T14:03:02.552Z,95004.08
2019-05-25T14:05:33.735Z,95003.66
2019-05-25T14:08:05.046Z,94999.54
2019-05-25T14:10:36.335Z,95007.03
2019-05-25T14:13:07.535Z,95001.75
2019-05-25T14:15:38.706Z,95001.05
2019-05-25T14:18:09.970Z,94990.20
2019-05-25T14:20:41.305Z,94991.94
2019-05-25T14:23:12.528Z,94990.91
2019-05-25T14:25:43.762Z,94991.88
2019-05-25T14:28:14.998Z,94994.25
2019-05-25T14:30:46.695Z,94992.87
2019-05-25T14:33:17.899Z,94990.16
2019-05-25T14:35:49.124Z,94993.92
2019-05-25T14:38:20.211Z,94995.44
2019-05-25T14:40:51.408Z,94988.31
2019-05-25T14:43:22.806Z,94992.64
2019-05-25T14:45:54.013Z,94995.22
2019-05-25T14:48:25.262Z,94992.50
2019-05-25T14:50:56.477Z,94991.29
2019-05-25T14:53:27.721Z,94991.33
2019-05-25T14:55:59.155Z,94984.66
2019-05-25T14:58:30.577Z,94989.42
2019-05-25T15:01:01.906Z,94996.61
2019-05-25T15:03:33.161Z,95001.19
2019-05-25T15:06:04.526Z,95000.86
2019-05-25T15:08:35.826Z,95002.25
2019-05-25T15:11:07.131Z,95003.33
2019-05-25T15:13:38.379Z,94997.38
2019-05-25T15:16:09.574Z,95001.35
2019-05-25T15:18:42.063Z,95004.24
2019-05-25T15:21:13.435Z,95004.20
2019-05-25T15:23:44.698Z,95013.08
2019-05-25T15:26:16.082Z,95006.06
2019-05-25T15:28:48.475Z,95012.05
2019-05-25T15:31:19.837Z,95015.84
2019-05-25T15:33:51.057Z,95015.98
2019-05-25T15:36:22.320Z,95011.43
2019-05-25T15:38:53.577Z,95022.16
2019-05-25T15:41:25.742Z,95016.07
2019-05-25T15:43:56.988Z,95017.13
2019-05-25T15:46:28.284Z,95009.98
2019-05-25T15:48:59.678Z,95019.31
2019-05-25T15:51:30.891Z,95023.10
2019-05-25T15:54:02.176Z,95020.95
2019-05-25T15:56:34.543Z,95018.47
2019-05-25T15:59:06.092Z,95025.52
2019-05-25T16:01:37.385Z,95028.40
2019-05-25T16:04:08.748Z,95033.36
2019-05-25T16:06:40.190Z,95036.61
2019-05-25T16:09:11.507Z,95038.04
2019-05-25T16:11:42.712Z,95048.72
2019-05-25T16:14:13.969Z,95042.92
2019-05-25T16:16:45.248Z,95038.47
2019-05-25T16:19:16.530Z,95040.34
2019-05-25T16:21:47.802Z,95047.19
2019-05-25T16:24:19.204Z,95052.91
2019-05-25T16:26:50.492Z,95054.14
2019-05-25T16:29:21.641Z,95053.60
2019-05-25T16:31:52.925Z,95060.83
2019-05-25T16:34:24.223Z,95058.33
2019-05-25T16:36:55.663Z,95069.36
2019-05-25T16:39:27.215Z,95069.21
2019-05-25T16:41:58.420Z,95076.17
2019-05-25T16:44:29.706Z,95079.17
2019-05-25T16:47:00.981Z,95087.98
2019-05-25T16:49:32.254Z,95098.80
2019-05-25T16:52:03.436Z,95113.16
2019-05-25T16:54:34.663Z,95099.67
2019-05-25T16:57:07.088Z,95097.84
2019-05-25T16:59:38.260Z,95095.29
2019-05-25T17:02:09.499Z,95101.45
2019-05-25T17:04:40.890Z,95097.64
2019-05-25T17:07:12.186Z,95096.91
2019-05-25T17:09:43.451Z,95092.61
2019-05-25T17:12:14.836Z,95098.38
2019-05-25T17:14:45.973Z,95098.17
2019-05-25T17:17:17.225Z,95103.23
2019-05-25T17:19:48.368Z,95100.59
2019-05-25T17:22:19.649Z,95110.42
2019-05-25T17:24:50.901Z,95107.17
2019-05-25T17:27:22.248Z,95104.78
2019-05-25T17:29:53.454Z,95104.23
2019-05-25T17:32:24.778Z,95099.51
2019-05-25T17:53:56.067Z,95109.13
2019-05-25T17:56:27.219Z,95112.21
2019-05-25T17:58:58.513Z,95115.45
2019-05-25T18:01:29.703Z,95110.63
2019-05-25T18:04:07.278Z,95123.53
2019-05-25T18:06:34.894Z,95123.81
2019-05-25T18:09:08.957Z,95124.05
2019-05-25T18:11:40.022Z,95128.88
2019-05-25T18:14:11.334Z,95131.76
2019-05-25T18:16:42.526Z,95132.52
2019-05-25T18:19:13.682Z,95135.41
2019-05-25T18:21:44.747Z,95137.27
2019-05-25T18:24:17.241Z,95139.10
2019-05-25T18:26:48.524Z,95141.88
2019-05-25T18:29:23.605Z,95151.69
2019-05-25T18:31:52.890Z,95149.62
2019-05-25T18:34:24.082Z,95148.75
2019-05-25T18:36:55.215Z,95141.66
2019-05-25T18:39:26.326Z,95153.02
2019-05-25T18:41:57.482Z,95161.77
2019-05-25T18:44:28.737Z,95166.17
2019-05-25T18:46:59.894Z,95174.86
2019-05-25T18:49:31.125Z,95173.09
2019-05-25T18:52:02.251Z,95176.81
2019-05-25T18:54:33.504Z,95186.05
2019-05-25T18:57:09.061Z,95183.05
2019-05-25T18:59:37.959Z,95183.05
2019-05-25T19:02:09.198Z,95181.49
2019-05-25T19:04:46.027Z,95182.16
2019-05-25T19:07:13.479Z,95182.68
2019-05-25T19:09:44.705Z,95174.91
2019-05-25T19:12:15.837Z,95175.37
2019-05-25T19:14:47.040Z,95177.34
2019-05-25T19:17:18.280Z,95184.13
2019-05-25T19:19:49.604Z,95183.57
2019-05-25T19:22:20.826Z,95185.52
2019-05-25T19:24:52.063Z,95184.19
2019-05-25T19:27:23.295Z,95183.48
2019-05-25T19:29:54.528Z,95188.55
2019-05-25T19:32:25.677Z,95193.48
2019-05-25T19:35:00.051Z,95195.31
2019-05-25T19:37:30.235Z,95192.98
2019-05-25T19:40:07.930Z,95201.99
2019-05-25T19:42:35.422Z,95202.89
2019-05-25T19:45:07.266Z,95207.42
2019-05-25T19:47:38.648Z,95209.22
2019-05-25T19:50:10.480Z,95206.45
2019-05-25T19:52:41.693Z,95212.09
2019-05-25T19:55:13.655Z,95211.36
2019-05-25T19:57:45.557Z,95213.77
2019-05-25T20:00:17.193Z,95218.55
2019-05-25T20:02:48.505Z,95218.36
2019-05-25T20:05:20.435Z,95223.76
2019-05-25T20:07:51.854Z,95223.44
2019-05-25T20:10:23.366Z,95224.80
2019-05-25T20:12:54.416Z,95224.05
2019-05-25T20:15:25.950Z,95232.11
2019-05-25T20:17:57.361Z,95233.56
2019-05-25T20:20:28.714Z,95244.19
2019-05-25T20:22:59.767Z,95250.09
2019-05-25T20:25:30.957Z,95252.95
2019-05-25T20:28:02.210Z,95250.01
2019-05-25T20:30:33.382Z,95246.67
2019-05-25T20:33:04.606Z,95253.65
2019-05-25T20:35:35.908Z,95252.50
2019-05-25T20:38:07.052Z,95250.71
2019-05-25T20:40:38.273Z,95258.38
2019-05-25T20:43:09.337Z,95260.37
2019-05-25T20:45:40.493Z,95257.01
2019-05-25T20:48:12.817Z,95265.32
2019-05-25T20:50:46.562Z,95273.50
2019-05-25T20:53:17.700Z,95270.39
2019-05-25T20:55:49.116Z,95276.23
2019-05-25T20:58:20.435Z,95275.27
2019-05-25T21:00:51.897Z,95278.52
2019-05-25T21:03:23.161Z,95278.41
2019-05-25T21:05:54.537Z,95279.55
2019-05-25T21:08:25.680Z,95275.68
2019-05-25T21:10:57.108Z,95282.39
2019-05-25T21:13:28.355Z,95275.36
2019-05-25T21:15:59.595Z,95280.17
2019-05-25T21:18:31.281Z,95279.59
2019-05-25T21:21:02.542Z,95282.11
2019-05-25T21:23:33.680Z,95278.75
2019-05-25T21:26:04.878Z,95280.68
2019-05-25T21:28:36.372Z,95281.03
2019-05-25T21:31:07.725Z,95279.17
2019-05-25T21:33:39.014Z,95278.73
2019-05-25T21:36:10.372Z,95283.07
2019-05-25T21:38:41.541Z,95282.42
2019-05-25T21:41:12.916Z,95276.11
2019-05-25T21:43:45.204Z,95287.50
2019-05-25T21:46:16.508Z,95281.51
2019-05-25T21:48:47.711Z,95284.73
2019-05-25T21:51:19.074Z,95278.54
2019-05-25T21:53:50.501Z,95278.69
2019-05-25T21:56:21.792Z,95280.36
2019-05-25T21:58:52.973Z,95279.44
2019-05-25T22:01:24.613Z,95274.23
2019-05-25T22:03:55.987Z,95273.83
2019-05-25T22:06:27.207Z,95272.78
2019-05-25T22:08:58.391Z,95272.73
2019-05-25T22:11:29.546Z,95270.79
2019-05-25T22:14:00.643Z,95273.76
2019-05-25T22:16:31.997Z,95273.39
2019-05-25T22:19:03.220Z,95275.06
2019-05-25T22:21:34.513Z,95277.52
2019-05-25T22:24:05.659Z,95272.61
2019-05-25T22:26:37.466Z,95270.87
2019-05-25T22:29:08.924Z,95278.80
2019-05-25T22:31:40.150Z,95269.31
2019-05-25T22:34:11.509Z,95272.14
2019-05-25T22:36:42.839Z,95273.17
2019-05-25T22:39:14.189Z,95269.65
2019-05-25T22:41:45.353Z,95274.55
2019-05-25T22:44:16.615Z,95269.58
2019-05-25T22:46:48.118Z,95271.11
2019-05-25T22:49:19.389Z,95282.64
2019-05-25T22:51:50.558Z,95273.90
2019-05-25T22:54:21.970Z,95278.48
2019-05-25T22:56:53.186Z,95280.87
2019-05-25T22:59:24.461Z,95280.47
2019-05-25T23:01:55.765Z,95273.14
2019-05-25T23:04:27.027Z,95271.59
2019-05-25T23:06:58.714Z,95268.65
2019-05-25T23:09:29.995Z,95270.91
2019-05-25T23:12:02.280Z,95269.41
2019-05-25T23:14:33.826Z,95276.42
2019-05-25T23:17:05.115Z,95269.23
2019-05-25T23:19:36.581Z,95265.77
2019-05-25T23:22:07.759Z,95271.33
2019-05-25T23:24:39.013Z,95268.70
2019-05-25T23:27:10.471Z,95269.03
2019-05-25T23:29:41.603Z,95268.20
2019-05-25T23:32:12.833Z,95269.20
2019-05-25T23:34:44.012Z,95271.02
2019-05-25T23:37:15.519Z,95268.39
2019-05-25T23:39:46.680Z,95266.95
2019-05-25T23:42:17.735Z,95273.18
2019-05-25T23:44:48.845Z,95276.63
2019-05-25T23:47:20.067Z,95278.41
2019-05-25T23:49:51.120Z,95270.73
2019-05-25T23:52:22.291Z,95272.97
2019-05-25T23:54:53.354Z,95269.38
2019-05-25T23:57:24.570Z,95269.56
2019-05-25T23:59:55.767Z,95268.91
